createdAt,value
2023-03-15T00:01:14.900Z,1.20
2023-03-15T00:03:42.852Z,1.23
2023-03-15T00:06:10.228Z,1.15
2023-03-15T00:08:37.303Z,1.15
2023-03-15T00:11:04.794Z,0.98
2023-03-15T00:13:32.513Z,1.08
2023-03-15T00:16:03.719Z,1.10
2023-03-15T00:18:30.842Z,1.33
2023-03-15T00:20:58.464Z,1.55
2023-03-15T00:23:25.565Z,1.40
2023-03-15T00:25:53.443Z,1.10
2023-03-15T00:28:20.745Z,1.20
2023-03-15T00:30:47.727Z,1.00
2023-03-15T00:33:16.267Z,1.15
2023-03-15T00:35:44.833Z,1.35
2023-03-15T00:38:12.257Z,1.30
2023-03-15T00:40:41.727Z,1.38
2023-03-15T00:43:08.616Z,1.20
2023-03-15T00:45:35.545Z,1.10
2023-03-15T00:48:02.588Z,1.40
2023-03-15T00:50:29.504Z,1.17
2023-03-15T00:52:56.539Z,0.90
2023-03-15T00:55:23.409Z,1.25
2023-03-15T00:57:50.246Z,1.30
2023-03-15T01:00:20.692Z,1.00
2023-03-15T01:02:47.756Z,1.38
2023-03-15T01:05:14.742Z,1.30
2023-03-15T01:07:41.665Z,1.17
2023-03-15T01:10:08.958Z,1.00
2023-03-15T01:12:36.112Z,1.63
2023-03-15T01:15:05.770Z,1.02
2023-03-15T01:17:32.945Z,1.13
2023-03-15T01:20:02.430Z,1.10
2023-03-15T01:22:29.261Z,1.40
2023-03-15T01:24:56.141Z,1.05
2023-03-15T01:27:22.973Z,1.58
2023-03-15T01:29:52.337Z,0.90
2023-03-15T01:32:19.317Z,1.20
2023-03-15T01:34:46.800Z,1.05
2023-03-15T01:37:14.580Z,1.10
2023-03-15T01:39:44.127Z,1.20
2023-03-15T01:42:11.421Z,1.08
2023-03-15T01:44:50.541Z,1.20
2023-03-15T01:47:18.085Z,1.23
2023-03-15T01:49:49.536Z,0.88
2023-03-15T01:52:22.015Z,1.10
2023-03-15T01:55:20.807Z,1.10
2023-03-15T01:58:07.032Z,0.88
2023-03-15T02:00:37.124Z,1.02
2023-03-15T02:03:15.897Z,1.00
2023-03-15T02:05:49.083Z,0.88
2023-03-15T02:08:29.072Z,1.00
2023-03-15T02:10:58.918Z,0.90
2023-03-15T02:13:29.058Z,1.23
2023-03-15T02:15:57.600Z,1.20
2023-03-15T02:18:30.776Z,1.10
2023-03-15T02:21:33.106Z,1.00
2023-03-15T02:24:34.698Z,1.25
2023-03-15T02:27:01.573Z,1.10
2023-03-15T02:29:29.566Z,1.08
2023-03-15T02:31:57.954Z,1.10
2023-03-15T02:34:26.189Z,1.10
2023-03-15T02:36:54.818Z,1.13
2023-03-15T02:39:22.613Z,1.10
2023-03-15T02:41:59.053Z,0.88
2023-03-15T02:44:37.142Z,1.10
2023-03-15T02:47:18.928Z,1.00
2023-03-15T02:49:50.289Z,1.52
2023-03-15T02:52:17.654Z,1.00
2023-03-15T02:54:44.618Z,0.85
2023-03-15T02:57:15.534Z,1.25
2023-03-15T02:59:43.740Z,1.20
2023-03-15T03:02:12.997Z,1.10
2023-03-15T03:04:41.883Z,1.17
2023-03-15T03:07:08.916Z,1.10
2023-03-15T03:09:44.266Z,1.25
2023-03-15T03:12:12.600Z,1.10
2023-03-15T03:14:39.667Z,1.20
2023-03-15T03:17:11.205Z,1.35
2023-03-15T03:19:38.913Z,1.00
2023-03-15T03:22:05.769Z,1.05
2023-03-15T03:24:33.790Z,1.08
2023-03-15T03:27:00.935Z,1.10
2023-03-15T03:29:31.742Z,1.20
2023-03-15T03:32:01.185Z,1.15
2023-03-15T03:34:27.968Z,2.00
2023-03-15T03:36:55.918Z,1.08
2023-03-15T03:39:38.004Z,1.20
2023-03-15T03:42:05.347Z,1.00
2023-03-15T03:44:32.241Z,1.73
2023-03-15T03:46:59.961Z,1.10
2023-03-15T03:49:28.671Z,1.10
2023-03-15T03:51:55.568Z,1.10
2023-03-15T03:54:22.581Z,1.00
2023-03-15T03:56:50.151Z,1.50
2023-03-15T03:59:17.207Z,1.20
2023-03-15T04:01:54.004Z,1.05
2023-03-15T04:04:21.092Z,1.73
2023-03-15T04:06:50.668Z,1.42
2023-03-15T04:09:24.996Z,1.17
2023-03-15T04:11:53.329Z,1.48
2023-03-15T04:14:20.584Z,1.20
2023-03-15T04:16:49.400Z,1.38
2023-03-15T04:19:18.192Z,1.40
2023-03-15T04:21:47.350Z,1.20
2023-03-15T04:24:35.124Z,1.20
2023-03-15T04:27:15.086Z,1.20
2023-03-15T04:30:17.767Z,1.10
2023-03-15T04:33:05.490Z,1.15
2023-03-15T04:36:02.886Z,0.90
2023-03-15T04:38:41.402Z,1.10
2023-03-15T04:44:26.646Z,1.40
2023-03-15T04:47:23.596Z,1.20
2023-03-15T04:50:13.519Z,1.40
2023-03-15T04:53:03.497Z,1.20
2023-03-15T04:55:48.961Z,1.30
2023-03-15T04:58:23.139Z,1.40
2023-03-15T05:01:01.471Z,1.30
2023-03-15T05:03:53.770Z,1.27
2023-03-15T05:06:50.218Z,1.48
2023-03-15T05:09:39.814Z,1.60
2023-03-15T05:12:13.742Z,1.20
2023-03-15T05:14:57.549Z,1.23
2023-03-15T05:17:46.536Z,1.50
2023-03-15T05:20:25.287Z,1.35
2023-03-15T05:23:27.575Z,1.40
2023-03-15T05:26:10.189Z,1.70
2023-03-15T05:28:47.608Z,1.58
2023-03-15T05:31:20.986Z,1.80
2023-03-15T05:34:13.874Z,1.60
2023-03-15T05:37:07.020Z,1.48
2023-03-15T05:39:41.754Z,1.70
2023-03-15T05:42:22.047Z,1.80
2023-03-15T05:44:49.170Z,1.77
2023-03-15T05:47:36.551Z,1.90
2023-03-15T05:50:29.913Z,1.48
2023-03-15T05:53:22.283Z,1.52
2023-03-15T05:56:15.377Z,1.60
2023-03-15T05:58:51.152Z,1.95
2023-03-15T06:01:36.284Z,1.70
2023-03-15T06:04:29.102Z,1.70
2023-03-15T06:06:57.736Z,2.15
2023-03-15T06:09:24.910Z,2.03
2023-03-15T06:11:52.311Z,1.75
2023-03-15T06:14:19.260Z,2.10
2023-03-15T06:16:50.241Z,1.75
2023-03-15T06:19:18.141Z,1.90
2023-03-15T06:21:45.701Z,2.28
2023-03-15T06:24:21.066Z,1.98
2023-03-15T06:26:48.399Z,2.03
2023-03-15T06:29:16.564Z,2.00
2023-03-15T06:31:48.123Z,1.50
2023-03-15T06:34:15.578Z,1.75
2023-03-15T06:36:42.561Z,2.13
2023-03-15T06:39:12.477Z,2.25
2023-03-15T06:41:41.833Z,1.88
2023-03-15T06:44:14.361Z,1.80
2023-03-15T06:46:41.986Z,2.10
2023-03-15T06:49:08.805Z,1.90
2023-03-15T06:51:37.569Z,2.10
2023-03-15T06:54:04.700Z,2.60
2023-03-15T06:56:37.395Z,2.05
2023-03-15T06:59:04.650Z,2.42
2023-03-15T07:01:31.708Z,2.30
2023-03-15T07:03:58.681Z,2.22
2023-03-15T07:06:27.638Z,2.17
2023-03-15T07:08:55.030Z,2.20
2023-03-15T07:11:22.010Z,2.50
2023-03-15T07:13:48.924Z,2.45
2023-03-15T07:16:16.105Z,2.90
2023-03-15T07:18:43.105Z,2.60
2023-03-15T07:21:10.265Z,2.90
2023-03-15T07:23:37.139Z,2.97
2023-03-15T07:26:04.125Z,3.08
2023-03-15T07:28:31.082Z,3.05
2023-03-15T07:30:59.573Z,3.10
2023-03-15T07:33:28.201Z,2.90
2023-03-15T07:35:55.716Z,3.05
2023-03-15T07:38:24.795Z,3.53
2023-03-15T07:40:52.068Z,3.53
2023-03-15T07:43:19.520Z,2.83
2023-03-15T07:45:49.863Z,3.25
2023-03-15T07:48:17.660Z,3.97
2023-03-15T07:50:45.929Z,3.13
2023-03-15T07:53:13.761Z,3.00
2023-03-15T07:55:40.940Z,3.00
2023-03-15T07:58:07.997Z,2.72
2023-03-15T08:00:34.985Z,3.05
2023-03-15T08:03:01.877Z,2.95
2023-03-15T08:05:29.277Z,3.80
2023-03-15T08:07:56.823Z,2.90
2023-03-15T08:10:23.990Z,2.92
2023-03-15T08:12:50.827Z,2.95
2023-03-15T08:15:18.314Z,2.90
2023-03-15T08:17:47.632Z,3.03
2023-03-15T08:20:17.637Z,2.80
2023-03-15T08:22:49.286Z,3.08
2023-03-15T08:25:19.887Z,3.33
2023-03-15T08:27:47.398Z,3.00
2023-03-15T08:30:16.061Z,2.78
2023-03-15T08:32:45.944Z,2.50
2023-03-15T08:35:15.608Z,3.03
2023-03-15T08:37:47.856Z,3.00
2023-03-15T08:40:16.428Z,2.90
2023-03-15T08:42:43.583Z,2.90
2023-03-15T08:45:11.349Z,3.40
2023-03-15T08:47:38.689Z,3.60
2023-03-15T08:50:09.594Z,3.47
2023-03-15T08:52:36.603Z,3.00
2023-03-15T08:55:06.770Z,4.05
2023-03-15T08:57:34.004Z,4.15
2023-03-15T09:00:07.541Z,3.33
2023-03-15T09:02:34.839Z,3.25
2023-03-15T09:05:02.073Z,3.22
2023-03-15T09:07:29.042Z,3.45
2023-03-15T09:09:55.997Z,3.15
2023-03-15T09:12:23.261Z,4.15
2023-03-15T09:14:50.266Z,3.60
2023-03-15T09:17:17.124Z,3.08
2023-03-15T09:19:44.205Z,3.35
2023-03-15T09:22:17.006Z,3.47
2023-03-15T09:24:51.800Z,3.90
2023-03-15T09:27:19.116Z,3.83
2023-03-15T09:29:46.043Z,3.88
2023-03-15T09:32:13.495Z,3.40
2023-03-15T09:34:42.197Z,3.10
2023-03-15T09:37:09.975Z,2.70
2023-03-15T09:39:36.875Z,3.00
2023-03-15T09:42:08.081Z,3.28
2023-03-15T09:45:04.044Z,2.80
2023-03-15T09:48:05.336Z,2.40
2023-03-15T09:50:39.877Z,2.72
2023-03-15T09:53:20.697Z,2.50
2023-03-15T09:55:49.281Z,3.20
2023-03-15T09:58:23.469Z,2.42
2023-03-15T10:00:54.663Z,2.40
2023-03-15T10:03:42.546Z,2.45
2023-03-15T10:06:15.017Z,2.40
2023-03-15T10:08:42.322Z,2.42
2023-03-15T10:11:13.457Z,2.33
2023-03-15T10:13:49.804Z,2.70
2023-03-15T10:16:34.780Z,2.42
2023-03-15T10:19:04.896Z,2.33
2023-03-15T10:21:57.092Z,2.28
2023-03-15T10:24:50.681Z,2.00
2023-03-15T10:27:43.683Z,2.63
2023-03-15T10:30:18.194Z,2.10
2023-03-15T10:32:52.074Z,2.20
2023-03-15T10:35:19.708Z,2.05
2023-03-15T10:37:46.635Z,2.40
2023-03-15T10:40:18.029Z,2.20
2023-03-15T10:42:46.943Z,2.33
2023-03-15T10:45:21.276Z,2.33
2023-03-15T10:50:34.012Z,2.10
2023-03-15T10:53:08.919Z,2.33
2023-03-15T10:55:46.005Z,2.30
2023-03-15T10:58:27.364Z,2.13
2023-03-15T11:01:07.599Z,2.70
2023-03-15T11:03:36.725Z,2.47
2023-03-15T11:06:20.120Z,2.83
2023-03-15T11:08:47.869Z,2.80
2023-03-15T11:11:15.044Z,2.55
2023-03-15T11:13:42.599Z,2.92
2023-03-15T11:16:21.750Z,2.60
2023-03-15T11:19:12.092Z,2.88
2023-03-15T11:21:41.309Z,2.83
2023-03-15T11:24:24.808Z,2.83
2023-03-15T11:26:55.052Z,2.60
2023-03-15T11:29:31.615Z,2.60
2023-03-15T11:32:10.829Z,2.50
2023-03-15T11:34:58.068Z,2.42
2023-03-15T11:37:51.339Z,2.45
2023-03-15T11:40:18.488Z,2.30
2023-03-15T11:42:49.876Z,2.72
2023-03-15T11:45:39.707Z,2.72
2023-03-15T11:48:47.332Z,2.80
2023-03-15T11:51:14.760Z,2.67
2023-03-15T11:54:07.373Z,2.33
2023-03-15T11:56:43.594Z,2.58
2023-03-15T11:59:32.819Z,3.45
2023-03-15T12:02:14.935Z,2.78
2023-03-15T12:04:44.125Z,2.88
2023-03-15T12:07:20.072Z,3.28
2023-03-15T12:10:02.881Z,2.97
2023-03-15T12:12:29.826Z,2.90
2023-03-15T12:15:15.051Z,3.22
2023-03-15T12:18:06.249Z,2.70
2023-03-15T12:20:49.367Z,3.15
2023-03-15T12:23:19.536Z,3.35
2023-03-15T12:25:59.347Z,3.30
2023-03-15T12:29:01.482Z,2.97
2023-03-15T12:31:49.657Z,2.95
2023-03-15T12:34:29.810Z,3.20
2023-03-15T12:37:04.218Z,2.92
2023-03-15T12:39:58.745Z,2.90
2023-03-15T12:42:31.735Z,3.17
2023-03-15T12:45:17.189Z,2.83
2023-03-15T12:48:06.597Z,2.63
2023-03-15T12:51:01.432Z,2.83
2023-03-15T12:53:37.196Z,2.50
2023-03-15T12:56:30.209Z,2.60
2023-03-15T12:59:04.915Z,2.70
2023-03-15T13:01:33.576Z,2.75
2023-03-15T13:04:01.873Z,2.50
2023-03-15T13:06:39.123Z,2.30
2023-03-15T13:09:09.127Z,2.50
2023-03-15T13:11:57.148Z,2.15
2023-03-15T13:14:37.897Z,2.20
2023-03-15T13:17:24.146Z,2.20
2023-03-15T13:20:23.350Z,2.30
2023-03-15T13:23:29.034Z,2.22
2023-03-15T13:26:04.189Z,2.03
2023-03-15T13:28:38.024Z,1.73
2023-03-15T13:31:24.596Z,1.73
2023-03-15T13:33:57.624Z,2.00
2023-03-15T13:36:39.944Z,1.83
2023-03-15T13:39:20.726Z,1.70
2023-03-15T13:41:47.823Z,1.67
2023-03-15T13:44:21.840Z,2.00
2023-03-15T13:46:50.298Z,1.45
2023-03-15T13:49:17.906Z,2.00
2023-03-15T13:51:46.617Z,2.33
2023-03-15T13:54:27.534Z,1.80
2023-03-15T13:57:08.884Z,1.85
2023-03-15T13:59:42.934Z,2.00
2023-03-15T14:02:51.157Z,1.60
2023-03-15T14:05:27.406Z,1.90
2023-03-15T14:08:03.070Z,1.70
2023-03-15T14:10:39.763Z,1.65
2023-03-15T14:13:54.157Z,1.60
2023-03-15T14:17:03.025Z,1.83
2023-03-15T14:19:34.381Z,1.80
2023-03-15T14:22:04.815Z,1.52
2023-03-15T14:24:39.010Z,1.90
2023-03-15T14:27:10.372Z,1.80
2023-03-15T14:29:39.380Z,1.73
2023-03-15T14:32:43.789Z,1.70
2023-03-15T14:35:30.831Z,1.40
2023-03-15T14:38:20.128Z,1.65
2023-03-15T14:40:48.263Z,1.88
2023-03-15T14:43:15.310Z,1.90
2023-03-15T14:45:45.317Z,1.98
2023-03-15T14:48:14.863Z,1.60
2023-03-15T14:50:43.756Z,1.48
2023-03-15T14:53:16.916Z,1.60
2023-03-15T14:55:44.195Z,1.63
2023-03-15T14:58:17.358Z,1.40
2023-03-15T15:00:46.710Z,1.50
2023-03-15T15:03:17.638Z,1.35
2023-03-15T15:05:45.174Z,1.20
2023-03-15T15:08:17.478Z,1.45
2023-03-15T15:10:47.078Z,1.60
2023-03-15T15:13:19.670Z,1.58
2023-03-15T15:15:55.263Z,1.40
2023-03-15T15:18:25.160Z,1.33
2023-03-15T15:20:55.704Z,1.60
2023-03-15T15:23:31.971Z,1.75
2023-03-15T15:26:04.527Z,1.80
2023-03-15T15:28:36.526Z,1.45
2023-03-15T15:31:05.802Z,1.42
2023-03-15T15:33:34.084Z,1.67
2023-03-15T15:36:01.793Z,2.00
2023-03-15T15:38:38.180Z,1.45
2023-03-15T15:41:06.446Z,1.40
2023-03-15T15:43:33.829Z,1.50
2023-03-15T15:46:01.945Z,1.10
2023-03-15T15:48:28.983Z,1.40
2023-03-15T15:50:56.165Z,1.30
2023-03-15T15:53:23.479Z,1.25
2023-03-15T15:55:50.734Z,1.23
2023-03-15T15:58:17.692Z,1.30
2023-03-15T16:00:44.837Z,1.30
2023-03-15T16:03:16.170Z,1.10
2023-03-15T16:05:43.353Z,1.10
2023-03-15T16:08:22.662Z,1.00
2023-03-15T16:10:49.727Z,1.00
2023-03-15T16:13:16.719Z,1.05
2023-03-15T16:15:44.067Z,1.23
2023-03-15T16:18:12.302Z,1.30
2023-03-15T16:20:41.292Z,1.15
2023-03-15T16:23:20.469Z,1.30
2023-03-15T16:25:50.739Z,1.15
2023-03-15T16:28:17.698Z,1.00
2023-03-15T16:30:46.881Z,1.00
2023-03-15T16:33:23.887Z,0.95
2023-03-15T16:35:53.187Z,1.08
2023-03-15T16:38:24.707Z,1.00
2023-03-15T16:40:53.200Z,1.25
2023-03-15T16:43:20.553Z,0.93
2023-03-15T16:45:47.686Z,0.95
2023-03-15T16:48:14.814Z,0.90
2023-03-15T16:50:43.278Z,0.90
2023-03-15T16:53:12.738Z,1.02
2023-03-15T16:55:40.278Z,1.25
2023-03-15T16:58:18.846Z,1.10
2023-03-15T17:00:48.245Z,1.10
2023-03-15T17:03:16.899Z,1.23
2023-03-15T17:05:46.287Z,1.13
2023-03-15T17:08:17.476Z,1.30
2023-03-15T17:10:45.757Z,1.13
2023-03-15T17:13:15.502Z,1.33
2023-03-15T17:15:42.775Z,1.08
2023-03-15T17:18:21.688Z,1.10
2023-03-15T17:20:50.274Z,1.27
2023-03-15T17:23:20.879Z,1.35
2023-03-15T17:25:48.840Z,1.20
2023-03-15T17:28:15.714Z,1.00
2023-03-15T17:30:42.706Z,1.10
2023-03-15T17:33:09.852Z,1.15
2023-03-15T17:35:49.838Z,1.00
2023-03-15T17:38:22.416Z,0.90
2023-03-15T17:40:49.806Z,0.90
2023-03-15T17:43:17.312Z,1.00
2023-03-15T17:45:44.664Z,4.03
2023-03-15T17:48:11.999Z,8.55
2023-03-15T17:50:41.466Z,6.53
2023-03-15T17:53:17.673Z,6.72
2023-03-15T17:55:46.611Z,6.93
2023-03-15T17:58:20.096Z,4.85
2023-03-15T18:00:51.017Z,3.20
2023-03-15T18:03:18.105Z,2.60
2023-03-15T18:05:45.817Z,2.08
2023-03-15T18:08:16.962Z,1.50
2023-03-15T18:10:44.741Z,1.50
2023-03-15T18:13:14.390Z,1.30
2023-03-15T18:15:41.357Z,1.25
2023-03-15T18:18:08.149Z,1.20
2023-03-15T18:20:35.268Z,1.20
2023-03-15T18:23:02.686Z,1.25
2023-03-15T18:25:32.041Z,1.98
2023-03-15T18:27:59.311Z,2.10
2023-03-15T18:30:29.008Z,1.92
2023-03-15T18:32:56.760Z,1.73
2023-03-15T18:35:29.651Z,1.55
2023-03-15T18:37:57.487Z,1.30
2023-03-15T18:40:27.106Z,1.48
2023-03-15T18:42:55.066Z,2.30
2023-03-15T18:45:25.387Z,1.65
2023-03-15T18:47:52.406Z,1.95
2023-03-15T18:50:20.033Z,3.00
2023-03-15T18:52:46.923Z,10.35
2023-03-15T18:55:17.320Z,8.82
2023-03-15T18:57:46.192Z,6.28
2023-03-15T19:00:16.176Z,5.18
2023-03-15T19:02:45.911Z,3.83
2023-03-15T19:05:14.162Z,3.08
2023-03-15T19:07:41.499Z,2.67
2023-03-15T19:10:11.655Z,2.50
2023-03-15T19:12:40.806Z,2.60
2023-03-15T19:15:12.146Z,2.20
2023-03-15T19:17:39.800Z,2.28
2023-03-15T19:20:10.206Z,2.35
2023-03-15T19:22:37.317Z,2.60
2023-03-15T19:25:06.396Z,2.78
2023-03-15T19:27:33.308Z,3.00
2023-03-15T19:30:00.287Z,3.20
2023-03-15T19:32:30.140Z,2.92
2023-03-15T19:34:57.241Z,2.60
2023-03-15T19:37:24.279Z,3.03
2023-03-15T19:39:51.339Z,3.10
2023-03-15T19:42:18.466Z,3.40
2023-03-15T19:44:47.569Z,3.72
2023-03-15T19:47:14.669Z,4.07
2023-03-15T19:49:41.833Z,3.50
2023-03-15T19:52:09.605Z,4.30
2023-03-15T19:54:36.762Z,4.70
2023-03-15T19:57:03.789Z,4.38
2023-03-15T19:59:30.699Z,4.22
2023-03-15T20:01:57.523Z,4.03
2023-03-15T20:04:24.611Z,4.10
2023-03-15T20:06:51.747Z,3.83
2023-03-15T20:09:18.634Z,3.72
2023-03-15T20:11:45.588Z,3.95
2023-03-15T20:14:12.510Z,3.55
2023-03-15T20:16:39.384Z,3.58
2023-03-15T20:19:06.330Z,3.40
2023-03-15T20:21:34.205Z,3.50
2023-03-15T20:24:01.248Z,3.45
2023-03-15T20:26:29.881Z,3.45
2023-03-15T20:28:57.384Z,2.97
2023-03-15T20:31:25.243Z,2.80
2023-03-15T20:33:52.419Z,3.40
2023-03-15T20:36:20.204Z,3.10
2023-03-15T20:38:47.055Z,3.72
2023-03-15T20:41:14.349Z,3.20
2023-03-15T20:43:41.847Z,3.22
2023-03-15T20:46:09.984Z,3.75
2023-03-15T20:48:37.687Z,3.65
2023-03-15T20:51:05.682Z,2.90
2023-03-15T20:53:34.392Z,3.15
2023-03-15T20:56:02.250Z,3.00
2023-03-15T20:58:29.426Z,3.30
2023-03-15T21:01:03.335Z,3.80
2023-03-15T21:03:33.166Z,3.47
2023-03-15T21:06:01.199Z,3.28
2023-03-15T21:08:28.447Z,3.42
2023-03-15T21:10:55.549Z,3.25
2023-03-15T21:13:22.538Z,3.60
2023-03-15T21:15:53.232Z,3.55
2023-03-15T21:18:22.613Z,3.60
2023-03-15T21:20:58.359Z,3.13
2023-03-15T21:23:27.907Z,3.38
2023-03-15T21:25:56.106Z,3.45
2023-03-15T21:28:23.790Z,3.08
2023-03-15T21:30:52.602Z,2.92
2023-03-15T21:33:21.334Z,2.85
2023-03-15T21:35:48.412Z,2.55
2023-03-15T21:38:15.536Z,2.88
2023-03-15T21:40:47.278Z,2.92
2023-03-15T21:43:14.650Z,2.70
2023-03-15T21:45:42.089Z,3.10
2023-03-15T21:48:09.105Z,3.13
2023-03-15T21:50:36.554Z,3.95
2023-03-15T21:53:04.009Z,3.45
2023-03-15T21:55:33.950Z,3.10
2023-03-15T21:58:02.342Z,3.20
2023-03-15T22:00:29.847Z,3.30
2023-03-15T22:02:56.977Z,3.00
2023-03-15T22:05:24.697Z,3.40
2023-03-15T22:07:51.918Z,3.22
2023-03-15T22:10:19.808Z,2.78
2023-03-15T22:12:46.875Z,2.78
2023-03-15T22:15:14.213Z,2.72
2023-03-15T22:17:41.108Z,2.42
2023-03-15T22:20:17.894Z,2.90
2023-03-15T22:22:49.249Z,2.53
2023-03-15T22:25:17.009Z,3.22
2023-03-15T22:27:44.083Z,3.00
2023-03-15T22:30:13.843Z,2.88
2023-03-15T22:32:44.767Z,2.47
2023-03-15T22:35:13.206Z,2.42
2023-03-15T22:37:40.704Z,2.38
2023-03-15T22:40:09.847Z,2.30
2023-03-15T22:42:36.669Z,2.35
2023-03-15T22:45:03.744Z,2.65
2023-03-15T22:47:30.601Z,2.40
2023-03-15T22:49:59.626Z,2.35
2023-03-15T22:52:27.407Z,2.83
2023-03-15T22:54:54.434Z,1.98
2023-03-15T22:57:22.223Z,2.47
2023-03-15T22:59:49.097Z,2.50
2023-03-15T23:02:15.922Z,2.60
2023-03-15T23:04:45.182Z,2.38
2023-03-15T23:07:12.972Z,2.08
2023-03-15T23:09:40.304Z,2.63
2023-03-15T23:12:07.490Z,2.40
2023-03-15T23:14:34.852Z,2.50
2023-03-15T23:17:04.487Z,2.67
2023-03-15T23:19:35.152Z,2.70
2023-03-15T23:22:06.646Z,2.17
2023-03-15T23:24:34.067Z,2.70
2023-03-15T23:27:03.385Z,2.20
2023-03-15T23:29:47.110Z,2.30
2023-03-15T23:32:20.774Z,1.98
2023-03-15T23:34:48.105Z,2.47
2023-03-15T23:37:17.699Z,1.88
2023-03-15T23:39:44.679Z,2.50
2023-03-15T23:42:12.078Z,2.30
2023-03-15T23:44:39.030Z,2.05
2023-03-15T23:47:06.590Z,2.13
2023-03-15T23:49:34.227Z,2.28
2023-03-15T23:52:05.840Z,2.35
2023-03-15T23:54:40.252Z,2.00
2023-03-15T23:57:08.773Z,2.50
2023-03-15T23:59:37.418Z,2.47
